CDT,Max TemperatureF,Mean TemperatureF,Min TemperatureF,Max Dew PointF,MeanDew PointF,Min DewpointF,Max Humidity, Mean Humidity, Min Humidity, Max Sea Level PressureIn, Mean Sea Level PressureIn, Min Sea Level PressureIn, Max VisibilityMiles, Mean VisibilityMiles, Min VisibilityMiles, Max Wind SpeedMPH, Mean Wind SpeedMPH, Max Gust SpeedMPH,PrecipitationIn, CloudCover, Events, WindDirDegrees
2014-5-1,47,44,40,40,38,36,87,79,72,29.94,29.87,29.80,10,10,4,21,13,25,0.00,8,,307
2014-5-2,66,52,37,43,38,32,90,63,29,29.93,29.81,29.70,10,10,10,25,11,41,0.00,3,Rain,272
2014-5-3,71,55,39,48,38,27,83,57,20,29.97,29.89,29.81,10,10,10,20,10,28,0.00,1,Rain,297
2014-5-4,64,54,43,42,37,33,87,55,37,30.06,29.96,29.86,10,10,10,23,9,29,0.00,0,Rain,71
2014-5-5,71,58,46,38,33,26,58,40,26,29.89,29.85,29.82,10,10,10,16,11,24,0.00,0,,81
2014-5-6,75,62,48,47,40,33,56,41,29,29.86,29.71,29.60,10,10,10,29,18,33,0.00,1,,104
2014-5-7,91,72,54,60,50,39,67,45,24,29.68,29.59,29.53,10,10,10,25,16,33,0.00,0,,142
2014-5-8,80,68,54,61,57,43,79,60,30,29.73,29.66,29.59,10,10,2,32,14,50,0.07,4,Rain,192
2014-5-9,68,58,49,45,37,27,77,54,21,29.85,29.80,29.72,10,10,10,23,16,29,0.00,4,,271
2014-5-10,81,64,47,50,42,35,77,49,19,29.88,29.80,29.70,10,10,10,26,10,32,0.01,3,Rain,159
2014-5-11,75,63,51,64,56,48,92,81,61,29.89,29.77,29.65,10,9,2,41,8,52,0.47,4,Rain,110
2014-5-12,72,60,47,64,56,45,91,83,68,29.98,29.77,29.65,10,9,3,22,11,34,0.60,7,Rain,305
2014-5-13,57,52,46,43,38,32,82,61,38,30.26,30.13,29.96,10,10,10,22,13,26,0.00,7,,322
2014-5-14,62,50,38,42,35,28,90,57,28,30.28,30.19,30.08,10,10,10,23,5,30,0.00,2,Rain,319
2014-5-15,50,44,38,36,31,29,71,59,48,30.15,30.12,30.10,10,10,7,23,16,30,0.03,6,Rain,341
2014-5-16,55,44,33,32,27,21,89,52,27,30.13,30.09,30.06,10,10,10,10,6,,0.00,3,,334
2014-5-17,66,50,35,34,26,16,87,44,16,30.16,30.12,30.09,10,10,10,17,4,21,0.00,3,,266
2014-5-18,71,56,40,40,32,25,73,40,19,30.18,30.10,29.98,10,10,10,23,11,30,0.00,1,,181
2014-5-19,74,64,55,58,51,38,77,58,42,30.00,29.82,29.69,10,10,7,31,16,37,0.02,8,Rain,144
2014-5-20,83,71,59,65,59,54,89,68,39,29.87,29.81,29.75,10,10,2,18,6,22,0.17,4,Rain,87
2014-5-21,83,70,58,61,49,39,89,52,21,30.10,29.98,29.85,10,10,10,18,9,22,0.00,1,,360
2014-5-22,76,64,53,50,46,40,81,56,28,30.26,30.16,30.10,10,10,10,13,5,,0.00,1,,35
2014-5-23,80,66,53,50,44,37,76,46,22,30.22,30.16,30.11,10,10,10,13,4,,0.00,0,,96
2014-5-24,80,68,56,55,48,43,74,51,27,30.16,30.11,30.03,10,10,10,16,8,22,0.00,0,,132
2014-5-25,77,70,62,68,62,56,97,85,67,30.06,30.01,29.91,10,9,2,23,8,47,0.12,7,Rain,148
2014-5-26,80,72,63,67,64,58,99,83,59,30.01,29.96,29.89,10,9,4,20,7,26,0.22,5,Rain,182
2014-5-27,80,72,63,68,63,60,96,79,50,29.99,29.94,29.89,10,10,2,17,6,10,0.17,3,Rain,229
2014-5-28,81,72,62,66,63,60,99,76,48,30.03,29.99,29.94,10,8,1,13,7,17,0.00,3,,12
2014-5-29,85,74,64,64,61,57,80,64,45,30.07,30.02,29.99,10,10,10,16,8,22,0.00,2,,97
2014-5-30,88,77,66,68,65,61,94,70,41,30.10,30.06,30.02,10,9,4,20,6,21,0.04,1,Rain,128
2014-5-31,85,76,66,69,66,63,95,75,46,30.09,30.02,29.93,10,9,2,20,8,25,0.14,3,Rain,150